Time;durP1;ratioP1;P1;durP2;ratioP2;P2;SDS_P1;SDS_P2;PMS_P1;PMS_P2;Temp;Humidity;BMP_temperature;BMP_pressure;BME280_temperature;BME280_humidity;BME280_pressure;Samples;Min_cycle;Max_cycle;Signal;HPM_P1;HPM_P2
2020/12/12 00:01:32;;;;;;;61.38;39.83;;;8.90;99.90;;;;;;4988147;28;20085;-82
2020/12/12 00:03:58;;;;;;;326.02;177.98;;;9.10;99.90;;;;;;4994210;28;20022;-82
2020/12/12 00:06:24;;;;;;;88.72;57.13;;;9.20;99.90;;;;;;4993466;28;20362;-84
2020/12/12 00:08:50;;;;;;;67.15;46.05;;;9.30;99.90;;;;;;4994239;28;20065;-80
2020/12/12 00:11:16;;;;;;;63.97;42.40;;;9.20;99.90;;;;;;4992410;28;20042;-81
2020/12/12 00:13:42;;;;;;;62.78;41.00;;;9.20;99.90;;;;;;4992586;28;20022;-83
2020/12/12 00:16:08;;;;;;;59.50;39.90;;;9.00;99.90;;;;;;4992585;28;20041;-84
2020/12/12 00:18:34;;;;;;;61.30;38.58;;;9.00;99.90;;;;;;4993826;28;20034;-81
2020/12/12 00:21:00;;;;;;;62.60;41.22;;;9.00;99.90;;;;;;4994182;28;20109;-83
2020/12/12 00:23:25;;;;;;;64.30;43.10;;;9.00;99.90;;;;;;4992211;28;20640;-84
2020/12/12 00:25:51;;;;;;;79.78;47.63;;;8.90;99.90;;;;;;4992470;28;20026;-84
2020/12/12 00:28:17;;;;;;;73.43;47.33;;;8.80;99.90;;;;;;4992221;28;20109;-83
2020/12/12 00:30:43;;;;;;;76.28;49.92;;;8.90;99.90;;;;;;4992386;28;20143;-84
2020/12/12 00:33:09;;;;;;;85.38;52.05;;;8.90;99.90;;;;;;4993903;28;20031;-83
2020/12/12 00:35:35;;;;;;;84.47;52.85;;;8.90;99.90;;;;;;4993531;28;20030;-81
2020/12/12 00:38:01;;;;;;;82.22;50.63;;;8.90;99.90;;;;;;4992349;28;20041;-81
2020/12/12 00:40:27;;;;;;;84.93;51.25;;;8.90;99.90;;;;;;4993758;28;20065;-82
2020/12/12 00:42:52;;;;;;;88.57;51.95;;;8.90;99.90;;;;;;4993412;28;20466;-82
2020/12/12 00:45:18;;;;;;;82.13;51.83;;;8.80;99.90;;;;;;4992602;28;20031;-82
2020/12/12 00:47:44;;;;;;;75.38;49.28;;;8.80;99.90;;;;;;4992537;28;20037;-80
2020/12/12 00:50:10;;;;;;;76.40;48.03;;;8.70;99.90;;;;;;4993255;28;20026;-82
2020/12/12 00:52:36;;;;;;;79.40;49.72;;;8.70;99.90;;;;;;4992009;28;20073;-80
2020/12/12 00:55:03;;;;;;;72.53;46.83;;;8.70;99.90;;;;;;4993729;28;20030;-82
2020/12/12 00:57:29;;;;;;;83.55;50.58;;;8.60;99.90;;;;;;4991522;28;20030;-82
2020/12/12 00:59:55;;;;;;;76.15;48.13;;;8.60;99.90;;;;;;4989686;28;20131;-83
2020/12/12 01:02:21;;;;;;;77.68;48.25;;;8.60;99.90;;;;;;4973851;28;20398;-82
2020/12/12 01:04:46;;;;;;;81.63;48.45;;;8.70;99.90;;;;;;4972614;28;20076;-81
2020/12/12 01:07:12;;;;;;;79.90;48.35;;;8.60;99.90;;;;;;4973607;28;20030;-82
2020/12/12 01:09:38;;;;;;;79.95;50.60;;;8.70;99.90;;;;;;4972635;28;20473;-83
2020/12/12 01:12:04;;;;;;;75.03;48.13;;;8.60;99.90;;;;;;4973368;28;20089;-82
2020/12/12 01:14:30;;;;;;;71.93;46.75;;;8.60;99.90;;;;;;4972612;28;20373;-81
2020/12/12 01:16:59;;;;;;;72.50;47.20;;;8.70;99.90;;;;;;4971932;28;20081;-81
2020/12/12 01:19:25;;;;;;;73.25;44.90;;;8.70;99.90;;;;;;4973657;28;20023;-80
2020/12/12 01:21:55;;;;;;;70.88;44.90;;;8.80;99.90;;;;;;4972728;28;20026;-80
2020/12/12 01:24:21;;;;;;;70.10;44.30;;;8.80;99.90;;;;;;4972121;28;20079;-82
2020/12/12 01:26:47;;;;;;;68.25;46.05;;;8.80;99.90;;;;;;4972145;28;20462;-80
2020/12/12 01:29:14;;;;;;;71.78;46.72;;;8.90;99.90;;;;;;4971528;28;20047;-79
2020/12/12 01:31:40;;;;;;;71.45;46.50;;;9.00;99.90;;;;;;4973540;28;20042;-83
2020/12/12 01:34:06;;;;;;;71.70;46.90;;;9.00;99.90;;;;;;4973333;28;20023;-82
2020/12/12 01:36:32;;;;;;;80.47;48.50;;;9.00;99.90;;;;;;4973521;28;20164;-80
2020/12/12 01:38:58;;;;;;;77.63;48.38;;;8.80;99.90;;;;;;4973146;28;20034;-85
2020/12/12 01:41:24;;;;;;;70.63;46.45;;;8.70;99.90;;;;;;4972329;28;20027;-84
2020/12/12 01:43:51;;;;;;;72.90;45.65;;;8.60;99.90;;;;;;4973269;28;20027;-81
2020/12/12 01:46:25;;;;;;;74.28;46.22;;;8.70;99.90;;;;;;4974186;28;20038;-81
2020/12/12 01:48:53;;;;;;;79.05;49.10;;;8.80;99.90;;;;;;4972904;28;20383;-83
2020/12/12 01:51:25;;;;;;;72.20;48.90;;;8.90;99.90;;;;;;4973227;28;20130;-84
2020/12/12 01:53:57;;;;;;;66.32;45.63;;;8.80;99.90;;;;;;4971971;28;20418;-84
2020/12/12 01:56:23;;;;;;;71.47;46.67;;;8.90;99.90;;;;;;4971894;28;20030;-80
2020/12/12 01:58:50;;;;;;;74.95;46.50;;;8.90;99.90;;;;;;4973221;28;20077;-82
2020/12/12 02:01:18;;;;;;;80.18;52.88;;;8.90;99.90;;;;;;4971766;28;20540;-85
2020/12/12 02:03:45;;;;;;;83.97;52.33;;;8.90;99.90;;;;;;4972897;28;20034;-83
2020/12/12 02:06:13;;;;;;;81.68;52.42;;;8.30;99.90;;;;;;4971693;28;20038;-83
2020/12/12 02:08:39;;;;;;;87.72;51.97;;;8.20;99.90;;;;;;4971553;28;20081;-82
2020/12/12 02:11:12;;;;;;;81.25;52.33;;;8.10;99.90;;;;;;4971695;28;20092;-80
2020/12/12 02:13:45;;;;;;;77.78;51.45;;;8.40;99.90;;;;;;4971409;28;20030;-83
2020/12/12 02:16:11;;;;;;;84.43;53.58;;;8.60;99.90;;;;;;4971740;28;20035;-82
2020/12/12 02:18:39;;;;;;;86.60;54.55;;;8.60;99.90;;;;;;4971466;28;20385;-82
2020/12/12 02:21:05;;;;;;;91.47;54.00;;;8.60;99.90;;;;;;4972972;28;20023;-80
2020/12/12 02:23:31;;;;;;;84.47;55.35;;;8.70;99.90;;;;;;4972834;28;20058;-81
2020/12/12 02:25:57;;;;;;;85.85;53.33;;;8.70;99.90;;;;;;4971319;28;20057;-80
2020/12/12 02:28:32;;;;;;;85.72;52.08;;;8.80;99.90;;;;;;4988095;28;20441;-80
2020/12/12 02:30:58;;;;;;;85.38;52.97;;;8.80;99.90;;;;;;4991886;28;20073;-82
2020/12/12 02:33:24;;;;;;;80.82;53.15;;;8.80;99.90;;;;;;4993352;28;20026;-82
2020/12/12 02:35:49;;;;;;;77.45;50.92;;;8.80;99.90;;;;;;4996024;28;20477;-80
2020/12/12 02:38:15;;;;;;;81.18;52.65;;;8.80;99.90;;;;;;4978508;28;20057;-79
2020/12/12 02:40:41;;;;;;;83.78;52.42;;;8.70;99.90;;;;;;4995686;28;20026;-79
2020/12/12 02:43:12;;;;;;;84.32;52.67;;;8.80;99.90;;;;;;4995866;28;20034;-83
2020/12/12 02:45:38;;;;;;;;;;;8.80;99.90;;;;;;4996268;28;20030;-83
2020/12/12 02:48:03;;;;;;;78.55;53.78;;;8.80;99.90;;;;;;4995708;28;20249;-81
2020/12/12 02:50:29;;;;;;;77.45;50.67;;;8.70;99.90;;;;;;4995820;28;20026;-80
2020/12/12 02:52:55;;;;;;;86.35;55.50;;;8.70;99.90;;;;;;4995776;28;20532;-81
2020/12/12 02:55:21;;;;;;;86.07;55.00;;;8.50;99.90;;;;;;4978165;28;20543;-82
2020/12/12 02:57:47;;;;;;;81.47;54.78;;;8.50;99.90;;;;;;4978139;28;20412;-81
2020/12/12 03:00:16;;;;;;;86.03;56.22;;;8.40;99.90;;;;;;4997958;28;20037;-82
2020/12/12 03:02:42;;;;;;;83.30;53.38;;;8.50;99.90;;;;;;4997428;28;20404;-83
2020/12/12 03:05:08;;;;;;;84.20;54.80;;;8.40;99.90;;;;;;5015014;28;20495;-81
2020/12/12 03:07:34;;;;;;;83.50;55.20;;;8.30;99.90;;;;;;4997341;28;20088;-81
2020/12/12 03:10:04;;;;;;;88.72;56.95;;;8.40;99.90;;;;;;5014932;28;20033;-82
2020/12/12 03:12:31;;;;;;;86.68;54.78;;;8.00;99.90;;;;;;4997251;28;20018;-80
2020/12/12 03:14:58;;;;;;;85.40;54.75;;;7.90;99.90;;;;;;4997267;28;20026;-81
2020/12/12 03:17:24;;;;;;;84.22;53.70;;;8.00;99.90;;;;;;5014917;28;20090;-82
2020/12/12 03:19:50;;;;;;;81.00;53.10;;;8.00;99.90;;;;;;5014602;28;20018;-82
2020/12/12 03:22:16;;;;;;;93.00;55.72;;;8.10;99.90;;;;;;5014642;28;20029;-81
2020/12/12 03:24:41;;;;;;;87.60;55.33;;;8.00;99.90;;;;;;5014448;28;20026;-82
2020/12/12 03:27:07;;;;;;;84.82;54.13;;;7.80;99.90;;;;;;5014449;28;20040;-82
2020/12/12 03:29:37;;;;;;;80.80;51.80;;;7.60;99.90;;;;;;5014840;28;20045;-82
2020/12/12 03:32:09;;;;;;;79.20;53.47;;;7.60;99.90;;;;;;5015093;28;20034;-82
2020/12/12 03:34:37;;;;;;;73.82;49.05;;;7.60;99.90;;;;;;5014538;28;20168;-84
2020/12/12 03:37:05;;;;;;;73.40;49.00;;;7.60;99.90;;;;;;5014872;28;20061;-81
2020/12/12 03:39:30;;;;;;;74.85;47.70;;;7.80;99.90;;;;;;4997053;28;20052;-79
2020/12/12 03:41:56;;;;;;;82.50;49.45;;;8.00;99.90;;;;;;4996738;28;20030;-81
2020/12/12 03:44:23;;;;;;;77.65;50.08;;;8.20;99.90;;;;;;5014579;28;20101;-81
2020/12/12 03:46:49;;;;;;;71.75;47.53;;;8.30;99.90;;;;;;5014186;28;20026;-83
2020/12/12 03:49:14;;;;;;;73.13;45.78;;;8.50;99.90;;;;;;5014392;28;20076;-84
2020/12/12 03:51:40;;;;;;;67.88;46.08;;;8.60;99.90;;;;;;5014299;28;20038;-81
2020/12/12 03:54:06;;;;;;;70.30;46.65;;;8.60;99.90;;;;;;5014282;28;20037;-80
2020/12/12 03:56:32;;;;;;;77.82;47.42;;;8.60;99.90;;;;;;5014152;28;20022;-81
2020/12/12 03:58:59;;;;;;;72.47;47.53;;;8.60;99.90;;;;;;5014427;28;20030;-80
2020/12/12 04:01:25;;;;;;;72.50;47.55;;;8.70;99.90;;;;;;4985795;28;20056;-81
2020/12/12 04:03:50;;;;;;;70.72;45.78;;;8.60;99.90;;;;;;4994542;28;20026;-84
2020/12/12 04:06:16;;;;;;;65.28;43.90;;;8.60;99.90;;;;;;4994367;28;20182;-81
2020/12/12 04:08:42;;;;;;;71.15;46.92;;;8.60;99.90;;;;;;4994670;28;20046;-84
2020/12/12 04:11:08;;;;;;;64.28;45.05;;;8.70;99.90;;;;;;4976711;28;20124;-81
2020/12/12 04:13:33;;;;;;;61.28;41.85;;;8.70;99.90;;;;;;4994307;28;20033;-82
2020/12/12 04:15:59;;;;;;;61.70;42.50;;;8.70;99.90;;;;;;4976662;28;20037;-82
2020/12/12 04:18:25;;;;;;;59.00;40.75;;;8.70;99.90;;;;;;4994685;28;20033;-82
2020/12/12 04:20:51;;;;;;;62.20;41.22;;;8.70;99.90;;;;;;4993698;28;20409;-81
2020/12/12 04:23:17;;;;;;;63.38;41.95;;;8.70;99.90;;;;;;4993629;28;20374;-81
2020/12/12 04:25:42;;;;;;;62.78;42.55;;;8.70;99.90;;;;;;4976872;28;20109;-81
2020/12/12 04:28:08;;;;;;;63.97;42.10;;;8.60;99.90;;;;;;4993618;28;20497;-82
2020/12/12 04:30:34;;;;;;;62.83;42.55;;;8.70;99.90;;;;;;4976423;28;20512;-82
2020/12/12 04:33:00;;;;;;;67.15;43.00;;;8.70;99.90;;;;;;4993819;28;20033;-83
2020/12/12 04:35:26;;;;;;;66.75;44.67;;;8.80;99.90;;;;;;4993988;28;20052;-80
2020/12/12 04:37:52;;;;;;;67.35;45.92;;;8.70;99.90;;;;;;4976773;28;20081;-83
2020/12/12 04:40:18;;;;;;;66.78;45.22;;;8.70;99.90;;;;;;4993922;28;20034;-83
2020/12/12 04:42:45;;;;;;;72.00;47.75;;;8.80;99.90;;;;;;4976492;28;20525;-82
2020/12/12 04:45:11;;;;;;;74.82;47.63;;;8.70;99.90;;;;;;4994206;28;20153;-82
2020/12/12 04:47:43;;;;;;;72.13;47.80;;;8.70;99.90;;;;;;4994227;28;20027;-81
2020/12/12 04:50:09;;;;;;;74.50;48.20;;;8.60;99.90;;;;;;4993779;28;20022;-85
2020/12/12 04:52:41;;;;;;;74.88;50.30;;;8.70;99.90;;;;;;4976423;28;20030;-82
2020/12/12 04:55:07;;;;;;;72.60;45.85;;;8.60;99.90;;;;;;4975933;28;20029;-82
2020/12/12 04:57:40;;;;;;;68.80;47.50;;;8.60;99.90;;;;;;4992896;28;20030;-83
2020/12/12 05:00:13;;;;;;;74.25;47.30;;;8.70;99.90;;;;;;4993639;28;20042;-81
2020/12/12 05:02:39;;;;;;;70.80;45.65;;;8.70;99.90;;;;;;4995394;28;20022;-85
2020/12/12 05:05:08;;;;;;;66.75;47.33;;;8.70;99.90;;;;;;4995395;28;20026;-81
2020/12/12 05:07:34;;;;;;;71.93;46.33;;;8.70;99.90;;;;;;5013458;28;20026;-79
2020/12/12 05:10:04;;;;;;;68.13;46.03;;;8.70;99.90;;;;;;5013064;28;20028;-81
2020/12/12 05:12:31;;;;;;;67.43;43.43;;;8.60;99.90;;;;;;5012527;28;20116;-80
2020/12/12 05:14:57;;;;;;;62.20;41.15;;;8.70;99.90;;;;;;4995421;28;20267;-81
2020/12/12 05:17:22;;;;;;;50.65;32.53;;;8.60;99.90;;;;;;5027989;28;20030;-81
2020/12/12 05:19:49;;;;;;;51.03;32.60;;;7.90;99.90;;;;;;5012846;28;20017;-83
2020/12/12 05:22:16;;;;;;;48.42;33.53;;;8.10;99.90;;;;;;5012589;28;20447;-82
2020/12/12 05:24:43;;;;;;;56.13;36.10;;;8.30;99.90;;;;;;5012833;28;20560;-84
2020/12/12 05:27:09;;;;;;;55.78;37.45;;;8.50;99.90;;;;;;4994902;28;20431;-82
2020/12/12 05:29:35;;;;;;;51.00;35.58;;;8.60;99.90;;;;;;4994912;28;20551;-84
2020/12/12 05:32:03;;;;;;;54.78;35.83;;;8.70;99.90;;;;;;5012913;28;20124;-86
2020/12/12 05:34:29;;;;;;;47.95;33.58;;;8.50;99.90;;;;;;4994504;28;20026;-84
2020/12/12 05:36:55;;;;;;;51.33;33.72;;;8.30;99.90;;;;;;5012423;28;20034;-84
2020/12/12 05:39:22;;;;;;;44.08;30.50;;;8.00;99.90;;;;;;5012787;28;20434;-82
2020/12/12 05:41:50;;;;;;;49.03;31.17;;;8.10;99.90;;;;;;4994695;28;20487;-84
2020/12/12 05:44:19;;;;;;;37.63;28.15;;;8.10;99.90;;;;;;5012585;28;20133;-83
2020/12/12 05:46:46;;;;;;;37.63;26.80;;;8.10;99.90;;;;;;5012391;28;20036;-84
2020/12/12 05:49:12;;;;;;;39.78;27.05;;;8.10;99.90;;;;;;5011968;28;20026;-83
2020/12/12 05:51:39;;;;;;;41.42;26.73;;;7.90;99.90;;;;;;5011819;28;20037;-82
2020/12/12 05:54:05;;;;;;;38.42;24.90;;;8.00;99.90;;;;;;4994970;28;20093;-81
2020/12/12 05:56:31;;;;;;;38.38;24.13;;;8.20;99.90;;;;;;5012548;28;20033;-85
2020/12/12 05:58:58;;;;;;;33.50;24.58;;;8.30;99.90;;;;;;5012766;28;20026;-84
2020/12/12 06:01:26;;;;;;;39.70;24.35;;;8.20;99.90;;;;;;5004205;28;20046;-83
2020/12/12 06:04:03;;;;;;;34.88;24.83;;;8.30;99.90;;;;;;4974980;28;20129;-83
2020/12/12 06:06:28;;;;;;;33.15;24.02;;;8.30;99.90;;;;;;4974791;28;20055;-81
2020/12/12 06:09:08;;;;;;;32.33;23.13;;;8.40;99.90;;;;;;4974056;28;20030;-83
2020/12/12 06:11:39;;;;;;;29.47;21.60;;;8.50;99.90;;;;;;4992419;28;20039;-83
2020/12/12 06:14:06;;;;;;;29.27;21.65;;;8.30;99.90;;;;;;4992609;28;20112;-83
2020/12/12 06:16:34;;;;;;;32.08;21.92;;;8.10;99.90;;;;;;4992180;28;20419;-82
2020/12/12 06:19:14;;;;;;;29.52;23.02;;;8.30;99.90;;;;;;4974969;28;20129;-83
2020/12/12 06:21:48;;;;;;;35.25;24.52;;;8.40;99.90;;;;;;4975020;28;20030;-84
2020/12/12 06:24:16;;;;;;;34.50;24.27;;;8.60;99.90;;;;;;4992374;28;20015;-84
2020/12/12 06:27:08;;;;;;;35.40;23.55;;;8.60;99.90;;;;;;4992481;28;20034;-84
2020/12/12 06:29:44;;;;;;;33.45;23.20;;;8.50;99.90;;;;;;4989149;28;20042;-84
2020/12/12 06:32:14;;;;;;;35.75;23.73;;;8.60;99.90;;;;;;4968979;28;20464;-85
2020/12/12 06:34:42;;;;;;;33.63;23.13;;;8.60;99.90;;;;;;4974696;28;20113;-83
2020/12/12 06:37:32;;;;;;;36.28;25.02;;;8.70;99.90;;;;;;4974605;28;20026;-80
2020/12/12 06:40:05;;;;;;;36.28;25.20;;;8.60;99.90;;;;;;4992221;28;20065;-82
2020/12/12 06:42:38;;;;;;;47.85;30.13;;;8.40;99.90;;;;;;4974210;28;20037;-81
2020/12/12 06:45:18;;;;;;;46.38;30.77;;;8.30;99.90;;;;;;4991902;28;20030;-81
2020/12/12 06:47:45;;;;;;;;;;;8.10;99.90;;;;;;4974820;28;20031;-83
2020/12/12 06:50:17;;;;;;;49.83;31.33;;;8.00;99.90;;;;;;5006893;28;19918;-82
2020/12/12 06:52:43;;;;;;;50.05;31.35;;;7.80;99.90;;;;;;4974467;28;20485;-80
2020/12/12 06:55:13;;;;;;;42.55;30.88;;;7.80;99.90;;;;;;4992264;28;20023;-81
2020/12/12 06:57:41;;;;;;;43.10;28.17;;;8.10;99.90;;;;;;4991790;28;20030;-83
2020/12/12 07:00:18;;;;;;;41.13;27.92;;;8.40;99.90;;;;;;4991841;28;20358;-81
2020/12/12 07:03:04;;;;;;;37.47;25.75;;;8.60;99.90;;;;;;4991401;28;20022;-82
2020/12/12 07:05:33;;;;;;;35.95;25.52;;;8.70;99.90;;;;;;5011640;28;20022;-83
2020/12/12 07:08:07;;;;;;;35.60;24.40;;;8.60;99.90;;;;;;4993603;28;20040;-83
2020/12/12 07:10:34;;;;;;;32.55;23.83;;;8.60;99.90;;;;;;4993557;28;20038;-85
2020/12/12 07:13:01;;;;;;;32.63;22.08;;;8.70;99.90;;;;;;4993366;28;20416;-81
2020/12/12 07:15:31;;;;;;;32.85;22.80;;;8.80;99.90;;;;;;4993829;28;20088;-84
2020/12/12 07:18:08;;;;;;;31.73;22.02;;;9.00;99.90;;;;;;5011086;28;20022;-81
2020/12/12 07:20:54;;;;;;;28.95;21.25;;;9.10;99.90;;;;;;4995181;28;20503;-81
2020/12/12 07:23:20;;;;;;;29.20;21.50;;;9.10;99.90;;;;;;5013449;28;20112;-84
2020/12/12 07:25:46;;;;;;;32.40;22.67;;;9.10;99.90;;;;;;5014720;28;20109;-85
2020/12/12 07:28:12;;;;;;;37.72;22.27;;;9.10;99.90;;;;;;5014459;28;20029;-83
2020/12/12 07:30:37;;;;;;;34.58;21.77;;;9.00;99.90;;;;;;4996862;28;20077;-81
2020/12/12 07:33:03;;;;;;;34.45;23.85;;;9.10;99.90;;;;;;4997159;28;20048;-80
2020/12/12 07:35:32;;;;;;;33.58;24.63;;;8.80;99.90;;;;;;4996436;28;20081;-79
2020/12/12 07:38:03;;;;;;;36.40;25.25;;;8.60;99.90;;;;;;5029487;28;20030;-83
2020/12/12 07:40:32;;;;;;;;;;;8.50;99.90;;;;;;5014798;28;20390;-81
2020/12/12 07:42:59;;;;;;;31.65;22.55;;;8.90;99.90;;;;;;5006306;28;19960;-85
2020/12/12 07:48:37;;;;;;;38.30;24.63;;;9.00;99.90;;;;;;4993252;28;20085;-82
2020/12/12 07:51:12;;;;;;;38.15;25.08;;;9.10;99.90;;;;;;4976353;28;20062;-84
2020/12/12 07:53:38;;;;;;;36.35;26.05;;;9.20;99.90;;;;;;4993832;28;20409;-83
2020/12/12 07:56:06;;;;;;;38.17;26.85;;;9.30;99.90;;;;;;4977209;28;20611;-80
2020/12/12 07:58:32;;;;;;;43.03;27.50;;;9.30;99.90;;;;;;4994475;28;20022;-80
2020/12/12 08:01:00;;;;;;;39.33;27.48;;;9.20;99.90;;;;;;4978429;28;20081;-81
2020/12/12 08:03:26;;;;;;;39.92;26.85;;;9.30;99.90;;;;;;5008938;28;20026;-83
2020/12/12 08:06:11;;;;;;;40.97;28.30;;;9.40;99.90;;;;;;4994237;28;20019;-83
2020/12/12 08:08:38;;;;;;;40.58;27.98;;;9.40;99.90;;;;;;4994093;28;20026;-81
2020/12/12 08:11:05;;;;;;;43.40;28.38;;;9.10;99.90;;;;;;4994087;28;20085;-82
2020/12/12 08:13:31;;;;;;;43.78;27.95;;;9.00;99.90;;;;;;4993957;28;20417;-80
2020/12/12 08:16:12;;;;;;;40.00;26.92;;;9.10;99.90;;;;;;4993927;28;20030;-80
2020/12/12 08:18:38;;;;;;;;;;;9.30;99.90;;;;;;5009213;28;20452;-85
2020/12/12 08:21:15;;;;;;;40.30;25.83;;;9.30;99.90;;;;;;4993814;28;20412;-81
2020/12/12 08:23:42;;;;;;;45.53;27.67;;;9.50;99.90;;;;;;4977712;28;20377;-81
2020/12/12 08:26:11;;;;;;;42.10;28.20;;;10.10;99.90;;;;;;5013365;28;20022;-82
2020/12/12 08:28:38;;;;;;;45.47;29.67;;;10.20;99.90;;;;;;5002026;28;20026;-82
2020/12/12 08:31:14;;;;;;;57.47;36.25;;;10.10;99.90;;;;;;4973205;28;20057;-84
2020/12/12 08:33:41;;;;;;;82.18;50.20;;;10.30;99.90;;;;;;4964926;28;20023;-82
2020/12/12 08:36:12;;;;;;;44.95;26.48;;;10.20;99.90;;;;;;4958017;28;20382;-82
2020/12/12 08:38:39;;;;;;;41.92;27.02;;;10.00;99.90;;;;;;4994318;28;20665;-86
2020/12/12 08:41:11;;;;;;;37.03;25.58;;;9.90;99.90;;;;;;4995486;28;20135;-86
2020/12/12 08:43:38;;;;;;;35.20;23.30;;;9.90;99.90;;;;;;5010420;28;20025;-85
2020/12/12 08:46:04;;;;;;;42.35;28.13;;;9.60;99.90;;;;;;4986418;28;20093;-83
2020/12/12 08:48:34;;;;;;;56.97;34.72;;;10.00;99.90;;;;;;4981742;28;20039;-81
2020/12/12 08:51:03;;;;;;;42.60;26.33;;;10.20;99.90;;;;;;4956016;28;20034;-82
2020/12/12 08:53:41;;;;;;;40.10;25.98;;;9.90;99.90;;;;;;4985055;28;20559;-81
2020/12/12 08:56:11;;;;;;;42.08;26.77;;;10.20;99.90;;;;;;4970248;28;20806;-81
2020/12/12 08:58:46;;;;;;;41.35;27.02;;;10.50;99.90;;;;;;4991447;28;20520;-81
2020/12/12 09:01:12;;;;;;;41.67;27.65;;;10.50;99.90;;;;;;4992720;28;20393;-84
2020/12/12 09:04:00;;;;;;;39.95;26.75;;;10.60;99.90;;;;;;4975258;28;20022;-80
2020/12/12 09:06:30;;;;;;;38.08;25.33;;;10.80;99.90;;;;;;4980158;28;20087;-86
2020/12/12 09:09:26;;;;;;;37.00;25.67;;;10.90;99.90;;;;;;5003338;28;20030;-86
2020/12/12 09:12:03;;;;;;;39.83;25.42;;;10.90;99.90;;;;;;4981042;28;20055;-85
2020/12/12 09:14:37;;;;;;;43.28;26.10;;;11.10;99.90;;;;;;4983283;28;20077;-85
2020/12/12 09:17:09;;;;;;;39.15;27.08;;;11.20;99.90;;;;;;5005323;28;20038;-83
2020/12/12 09:19:36;;;;;;;37.75;24.55;;;11.30;99.90;;;;;;4994585;28;20108;-86
2020/12/12 09:22:05;;;;;;;38.65;25.50;;;11.20;99.90;;;;;;4994504;28;20030;-83
2020/12/12 09:24:34;;;;;;;37.42;23.48;;;11.20;99.90;;;;;;5012032;28;20058;-84
2020/12/12 09:26:59;;;;;;;36.55;24.27;;;11.40;99.90;;;;;;4994255;28;20022;-83
2020/12/12 09:29:26;;;;;;;30.80;22.17;;;11.70;99.90;;;;;;4977013;28;20065;-85
2020/12/12 09:31:57;;;;;;;37.00;21.98;;;11.40;99.90;;;;;;4992452;28;20472;-83
2020/12/12 09:34:23;;;;;;;33.03;23.10;;;11.10;99.90;;;;;;4991920;28;20040;-84
2020/12/12 09:36:50;;;;;;;32.53;22.58;;;11.10;99.90;;;;;;4974598;28;20038;-81
2020/12/12 09:39:16;;;;;;;34.67;24.17;;;11.10;99.90;;;;;;4992064;28;20049;-80
2020/12/12 09:41:42;;;;;;;53.03;35.13;;;11.30;99.90;;;;;;4974306;28;20022;-80
2020/12/12 09:44:08;;;;;;;31.63;22.00;;;11.50;99.90;;;;;;4991295;28;20034;-83
2020/12/12 09:46:34;;;;;;;31.85;22.17;;;11.60;99.90;;;;;;4992730;28;20105;-83
2020/12/12 09:49:00;;;;;;;32.33;21.63;;;11.20;99.90;;;;;;4992633;28;20030;-82
2020/12/12 09:51:27;;;;;;;36.95;22.67;;;11.50;99.90;;;;;;4991922;28;20065;-86
2020/12/12 09:53:53;;;;;;;35.13;24.17;;;11.70;99.90;;;;;;4974733;28;20073;-86
2020/12/12 09:56:20;;;;;;;36.10;22.80;;;11.90;99.90;;;;;;4992360;28;20030;-88
2020/12/12 09:58:46;;;;;;;26.67;18.20;;;12.00;99.90;;;;;;4992488;28;20037;-86
2020/12/12 10:01:15;;;;;;;38.50;25.00;;;12.00;99.90;;;;;;4987336;28;20038;-80
2020/12/12 10:03:42;;;;;;;52.10;31.08;;;12.30;99.90;;;;;;4997077;28;20022;-79
2020/12/12 10:06:09;;;;;;;38.42;23.95;;;12.60;99.90;;;;;;4973860;28;20038;-82
2020/12/12 10:08:35;;;;;;;129.82;72.93;;;12.60;99.90;;;;;;4987568;28;20081;-80
2020/12/12 10:11:01;;;;;;;37.60;24.00;;;12.20;99.90;;;;;;4985472;28;20034;-79
2020/12/12 10:13:27;;;;;;;63.60;40.50;;;12.20;99.90;;;;;;4972335;28;20030;-80
2020/12/12 10:15:53;;;;;;;27.20;16.95;;;12.60;99.90;;;;;;4991085;28;20418;-83
2020/12/12 10:18:19;;;;;;;22.65;13.90;;;12.50;99.90;;;;;;4991978;28;20035;-82
2020/12/12 10:20:50;;;;;;;19.48;12.73;;;12.20;99.90;;;;;;4991825;28;20049;-83
2020/12/12 10:23:16;;;;;;;21.73;13.93;;;11.80;99.90;;;;;;4974037;28;20453;-82
2020/12/12 10:25:42;;;;;;;18.63;12.93;;;11.70;99.90;;;;;;4991406;28;20105;-81
2020/12/12 10:28:08;;;;;;;18.88;12.75;;;11.70;99.90;;;;;;4990680;28;20481;-80
2020/12/12 10:30:33;;;;;;;19.10;12.88;;;11.80;99.90;;;;;;4990888;28;20051;-81
2020/12/12 10:33:00;;;;;;;20.08;11.93;;;11.70;99.90;;;;;;4973981;28;20113;-85
2020/12/12 10:35:30;;;;;;;18.95;11.40;;;11.60;99.90;;;;;;4973737;28;20034;-83
2020/12/12 10:37:57;;;;;;;17.83;11.15;;;11.30;99.90;;;;;;4977290;28;20038;-81
2020/12/12 10:40:30;;;;;;;22.85;13.32;;;10.90;99.90;;;;;;4979362;28;20022;-83
2020/12/12 10:42:56;;;;;;;21.95;13.25;;;11.00;99.90;;;;;;4989637;28;20029;-81
2020/12/12 10:45:22;;;;;;;19.00;12.65;;;11.10;99.90;;;;;;4973615;28;20030;-80
2020/12/12 10:47:47;;;;;;;19.63;13.48;;;11.30;99.90;;;;;;4972895;28;20117;-81
2020/12/12 10:53:35;;;;;;;21.40;12.40;;;11.40;99.90;;;;;;4984278;28;20048;-81
2020/12/12 10:56:01;;;;;;;19.90;12.23;;;11.40;99.90;;;;;;4993123;28;20030;-81
2020/12/12 10:58:27;;;;;;;17.48;11.02;;;11.50;99.90;;;;;;4976454;28;20034;-81
2020/12/12 11:00:53;;;;;;;19.92;11.15;;;11.40;99.90;;;;;;4977154;28;20041;-81
2020/12/12 11:03:19;;;;;;;14.60;10.45;;;11.40;99.90;;;;;;5011594;28;20014;-80
2020/12/12 11:05:45;;;;;;;15.63;10.75;;;11.50;99.90;;;;;;4996499;28;20026;-81
2020/12/12 11:08:17;;;;;;;18.63;10.32;;;11.50;99.90;;;;;;4996287;28;20053;-83
2020/12/12 11:10:42;;;;;;;15.10;10.25;;;11.60;99.90;;;;;;4985008;28;20041;-80
2020/12/12 11:13:08;;;;;;;18.02;11.32;;;11.60;99.90;;;;;;4976771;28;20034;-81
2020/12/12 11:15:36;;;;;;;16.75;10.73;;;11.60;99.90;;;;;;4994170;28;20041;-81
2020/12/12 11:18:02;;;;;;;17.27;10.48;;;11.60;99.90;;;;;;4976567;28;20037;-79
2020/12/12 11:20:27;;;;;;;16.85;11.10;;;11.50;99.90;;;;;;4972968;28;20030;-80
2020/12/12 11:22:55;;;;;;;16.92;11.63;;;11.60;99.90;;;;;;4993699;28;20025;-80
2020/12/12 11:25:21;;;;;;;13.80;10.30;;;11.60;99.90;;;;;;4995038;28;20027;-81
2020/12/12 11:27:47;;;;;;;16.10;10.80;;;11.50;99.90;;;;;;4976370;28;20481;-81
2020/12/12 11:30:13;;;;;;;21.95;12.10;;;11.50;99.90;;;;;;4970743;28;20070;-80
2020/12/12 11:32:41;;;;;;;24.58;15.50;;;11.50;99.90;;;;;;4961071;28;20359;-81
2020/12/12 11:35:15;;;;;;;25.30;16.88;;;11.40;99.90;;;;;;4985395;28;20027;-81
2020/12/12 11:43:42;;;;;;;63.78;36.65;;;12.00;99.90;;;;;;4981001;28;20192;-79
2020/12/12 11:48:35;;;;;;;68.75;45.17;;;11.80;99.90;;;;;;4993855;28;20042;-81
2020/12/12 11:51:00;;;;;;;107.57;64.28;;;12.20;99.90;;;;;;4993980;28;20045;-82
2020/12/12 11:53:26;;;;;;;38.80;27.48;;;12.40;99.90;;;;;;4976531;28;20053;-83
2020/12/12 11:55:52;;;;;;;36.15;24.23;;;11.90;99.90;;;;;;4975988;28;20066;-84
2020/12/12 11:58:18;;;;;;;36.72;24.38;;;11.70;99.90;;;;;;4993584;28;20083;-82
2020/12/12 12:00:44;;;;;;;31.52;22.45;;;11.40;99.90;;;;;;4976312;28;20109;-83
2020/12/12 12:03:13;;;;;;;31.25;21.23;;;11.40;99.90;;;;;;4990490;28;20508;-83
2020/12/12 12:05:41;;;;;;;28.10;20.98;;;11.50;99.90;;;;;;4994400;28;20369;-84
2020/12/12 12:08:20;;;;;;;28.98;19.33;;;11.40;99.90;;;;;;4995559;28;20025;-83
2020/12/12 12:10:56;;;;;;;25.00;16.58;;;11.40;99.90;;;;;;5013159;28;20045;-81
2020/12/12 12:13:21;;;;;;;25.70;17.02;;;11.30;99.90;;;;;;4985899;28;20045;-86
2020/12/12 12:15:47;;;;;;;28.13;17.10;;;11.30;99.90;;;;;;4986934;28;20396;-84
2020/12/12 12:18:13;;;;;;;26.65;17.42;;;11.30;99.90;;;;;;4995344;28;20487;-84
2020/12/12 12:20:39;;;;;;;26.58;16.88;;;11.40;99.90;;;;;;4995642;28;20022;-84
2020/12/12 12:23:04;;;;;;;19.80;14.50;;;11.50;99.90;;;;;;5012930;28;20037;-82
2020/12/12 12:25:30;;;;;;;20.27;13.80;;;11.60;99.90;;;;;;4982497;28;20559;-83
2020/12/12 12:27:56;;;;;;;22.42;13.80;;;11.70;99.90;;;;;;4975977;28;20026;-84
2020/12/12 12:30:24;;;;;;;21.33;14.52;;;11.90;99.90;;;;;;4976108;28;20077;-84
2020/12/12 12:32:50;;;;;;;21.15;13.75;;;12.20;99.90;;;;;;4993429;28;20030;-84
2020/12/12 12:35:16;;;;;;;19.63;14.30;;;12.30;99.90;;;;;;4976448;28;20048;-83
2020/12/12 12:37:41;;;;;;;19.67;13.73;;;12.70;99.90;;;;;;4975160;28;20491;-83
2020/12/12 12:40:07;;;;;;;18.95;12.82;;;12.80;99.90;;;;;;4974439;28;20023;-86
2020/12/12 12:42:33;;;;;;;22.42;14.77;;;13.00;99.90;;;;;;4980115;28;20486;-83
2020/12/12 12:44:58;;;;;;;23.15;13.90;;;13.00;99.90;;;;;;5010100;28;20142;-84
2020/12/12 12:47:24;;;;;;;22.35;14.38;;;13.10;99.90;;;;;;4998418;28;20481;-80
2020/12/12 12:49:50;;;;;;;21.40;14.07;;;13.10;99.90;;;;;;4985081;28;20058;-83
2020/12/12 12:52:16;;;;;;;24.13;14.07;;;13.20;99.90;;;;;;4997341;28;20038;-83
2020/12/12 12:54:42;;;;;;;20.52;14.55;;;13.40;99.90;;;;;;4970023;28;20659;-83